createdAt,value
2018-05-03T00:00:47.397Z,11.13
2018-05-03T00:03:15.122Z,12.17
2018-05-03T00:05:42.842Z,11.37
2018-05-03T00:08:10.527Z,11.63
2018-05-03T00:10:38.228Z,11.97
2018-05-03T00:13:05.933Z,12.47
2018-05-03T00:15:33.561Z,12.43
2018-05-03T00:18:01.178Z,12.37
2018-05-03T00:20:28.802Z,12.10
2018-05-03T00:22:56.474Z,12.50
2018-05-03T00:25:24.221Z,12.60
2018-05-03T00:27:51.878Z,11.83
2018-05-03T00:30:19.590Z,11.87
2018-05-03T00:32:47.257Z,12.37
2018-05-03T00:35:14.921Z,12.23
2018-05-03T00:37:42.641Z,12.30
2018-05-03T00:40:10.310Z,12.67
2018-05-03T00:42:37.954Z,12.47
2018-05-03T00:45:05.633Z,12.07
2018-05-03T00:47:33.283Z,13.17
2018-05-03T00:50:01.050Z,12.87
2018-05-03T00:52:28.675Z,12.43
2018-05-03T00:54:56.390Z,13.17
2018-05-03T00:57:24.141Z,13.63
2018-05-03T00:59:51.835Z,12.67
2018-05-03T01:02:19.542Z,13.30
2018-05-03T01:04:47.161Z,13.30
2018-05-03T01:07:14.802Z,12.73
2018-05-03T01:09:42.441Z,13.53
2018-05-03T01:12:10.106Z,13.70
2018-05-03T01:14:37.794Z,14.17
2018-05-03T01:17:05.434Z,13.77
2018-05-03T01:19:33.059Z,14.10
2018-05-03T01:22:00.687Z,14.37
2018-05-03T01:24:28.436Z,13.43
2018-05-03T01:26:56.090Z,13.93
2018-05-03T01:29:23.742Z,14.67
2018-05-03T01:31:51.469Z,12.80
2018-05-03T01:34:19.630Z,14.40
2018-05-03T01:36:47.259Z,14.30
2018-05-03T01:39:14.894Z,15.13
2018-05-03T01:41:42.577Z,14.97
2018-05-03T01:44:10.261Z,15.03
2018-05-03T01:46:38.001Z,13.60
2018-05-03T01:49:05.661Z,14.60
2018-05-03T01:51:33.360Z,13.87
2018-05-03T01:54:01.077Z,14.70
2018-05-03T01:56:28.757Z,15.43
2018-05-03T01:58:56.489Z,15.37
2018-05-03T02:01:24.196Z,14.63
2018-05-03T02:03:51.902Z,15.33
2018-05-03T02:06:19.602Z,15.40
2018-05-03T02:08:47.274Z,15.20
2018-05-03T02:11:14.965Z,15.10
2018-05-03T02:13:42.709Z,16.13
2018-05-03T02:16:10.416Z,16.17
2018-05-03T02:18:38.127Z,16.70
2018-05-03T02:21:05.847Z,15.83
2018-05-03T02:23:33.562Z,16.17
2018-05-03T02:26:01.257Z,17.03
2018-05-03T02:28:28.904Z,18.30
2018-05-03T02:30:56.625Z,15.87
2018-05-03T02:33:24.346Z,15.40
2018-05-03T02:35:52.166Z,16.77
2018-05-03T02:38:19.866Z,16.37
2018-05-03T02:40:47.542Z,16.03
2018-05-03T02:43:15.218Z,15.10
2018-05-03T02:45:42.927Z,15.37
2018-05-03T02:48:10.650Z,17.00
2018-05-03T02:50:38.417Z,17.70
2018-05-03T02:53:06.051Z,16.93
2018-05-03T02:55:33.705Z,15.67
2018-05-03T02:58:18.064Z,16.37
2018-05-03T03:01:03.263Z,16.17
2018-05-03T03:03:48.518Z,16.97
2018-05-03T03:06:33.630Z,18.27
2018-05-03T03:09:18.604Z,17.30
2018-05-03T03:12:03.669Z,17.70
2018-05-03T03:18:06.454Z,16.73
2018-05-03T03:21:01.307Z,16.60
2018-05-03T03:23:46.412Z,17.93
2018-05-03T03:26:27.646Z,17.33
2018-05-03T03:29:12.828Z,20.07
2018-05-03T03:31:57.746Z,20.50
2018-05-03T03:34:27.220Z,21.60
2018-05-03T03:37:03.455Z,23.33
2018-05-03T03:39:42.966Z,22.67
2018-05-03T03:42:22.288Z,23.53
2018-05-03T03:44:49.974Z,25.83
2018-05-03T03:47:17.656Z,28.30
2018-05-03T03:49:45.382Z,27.93
2018-05-03T03:52:13.001Z,26.90
2018-05-03T03:54:40.701Z,26.43
2018-05-03T03:57:08.414Z,26.20
2018-05-03T03:59:36.113Z,26.80
2018-05-03T04:02:03.861Z,26.60
2018-05-03T04:04:31.543Z,25.87
2018-05-03T04:06:59.222Z,26.47
2018-05-03T04:09:26.866Z,25.37
2018-05-03T04:11:54.517Z,26.27
2018-05-03T04:14:22.143Z,27.87
2018-05-03T04:16:49.851Z,26.83
2018-05-03T04:19:29.058Z,28.50
2018-05-03T04:22:08.349Z,28.03
2018-05-03T04:24:47.793Z,28.90
2018-05-03T04:27:15.405Z,26.87
2018-05-03T04:29:43.114Z,26.40
2018-05-03T04:32:10.803Z,26.70
2018-05-03T04:34:38.607Z,28.20
2018-05-03T04:37:06.229Z,27.97
2018-05-03T04:39:33.862Z,25.63
2018-05-03T04:42:01.514Z,23.97
2018-05-03T04:44:29.150Z,23.43
2018-05-03T04:46:56.913Z,22.47
2018-05-03T04:49:24.590Z,22.47
2018-05-03T04:51:52.225Z,21.43
2018-05-03T04:54:19.944Z,22.20
2018-05-03T04:56:47.581Z,23.10
2018-05-03T04:59:15.809Z,21.83
2018-05-03T05:01:43.514Z,22.63
2018-05-03T05:04:11.254Z,22.80
2018-05-03T05:06:38.861Z,23.47
2018-05-03T05:09:06.654Z,23.20
2018-05-03T05:11:34.273Z,23.10
2018-05-03T05:14:01.942Z,23.73
2018-05-03T05:16:29.659Z,24.10
2018-05-03T05:18:57.354Z,24.50
2018-05-03T05:21:25.097Z,24.07
2018-05-03T05:23:52.800Z,23.80
2018-05-03T05:26:20.513Z,23.57
2018-05-03T05:28:48.954Z,23.33
2018-05-03T05:31:16.657Z,23.83
2018-05-03T05:33:44.298Z,23.77
2018-05-03T05:36:12.016Z,24.77
2018-05-03T05:38:39.770Z,22.97
2018-05-03T05:41:07.330Z,23.83
2018-05-03T05:43:35.074Z,23.37
2018-05-03T05:46:02.729Z,23.73
2018-05-03T05:48:30.419Z,24.03
2018-05-03T05:50:58.245Z,23.13
2018-05-03T05:53:25.930Z,23.77
2018-05-03T05:55:53.610Z,23.20
2018-05-03T05:58:21.255Z,23.57
2018-05-03T06:00:48.966Z,25.97
2018-05-03T06:03:16.677Z,23.60
2018-05-03T06:05:44.454Z,26.07
2018-05-03T06:08:12.275Z,25.50
2018-05-03T06:10:39.945Z,24.90
2018-05-03T06:13:07.650Z,24.77
2018-05-03T06:15:35.366Z,24.13
2018-05-03T06:18:03.090Z,24.77
2018-05-03T06:20:30.735Z,25.07
2018-05-03T06:22:58.509Z,25.07
2018-05-03T06:25:26.126Z,25.40
2018-05-03T06:27:53.709Z,25.10
2018-05-03T06:30:21.359Z,25.70
2018-05-03T06:32:48.991Z,26.37
2018-05-03T06:35:16.592Z,24.23
2018-05-03T06:37:44.257Z,25.17
2018-05-03T06:40:11.927Z,24.67
2018-05-03T06:42:39.562Z,26.60
2018-05-03T06:45:07.258Z,23.97
2018-05-03T06:47:34.967Z,24.40
2018-05-03T06:50:02.674Z,25.30
2018-05-03T06:52:30.406Z,24.93
2018-05-03T06:54:58.119Z,24.80
2018-05-03T06:57:25.904Z,22.93
2018-05-03T06:59:53.629Z,23.43
2018-05-03T07:02:21.305Z,22.90
2018-05-03T07:04:48.983Z,24.70
2018-05-03T07:07:16.687Z,22.83
2018-05-03T07:09:45.333Z,22.83
2018-05-03T07:12:13.054Z,24.97
2018-05-03T07:14:40.766Z,25.13
2018-05-03T07:17:08.498Z,24.80
2018-05-03T07:19:36.182Z,25.40
2018-05-03T07:22:03.994Z,23.93
2018-05-03T07:24:31.681Z,23.50
2018-05-03T07:26:59.591Z,27.17
2018-05-03T07:29:27.350Z,24.63
2018-05-03T07:31:55.074Z,25.70
2018-05-03T07:34:22.795Z,27.80
2018-05-03T07:36:50.435Z,24.83
2018-05-03T07:39:18.073Z,26.67
2018-05-03T07:41:45.873Z,26.30
2018-05-03T07:44:13.614Z,24.73
2018-05-03T07:46:41.342Z,25.53
2018-05-03T07:49:08.965Z,24.80
2018-05-03T07:51:36.678Z,24.37
2018-05-03T07:54:04.370Z,24.80
2018-05-03T07:56:32.068Z,24.23
2018-05-03T07:58:59.691Z,25.27
2018-05-03T08:01:27.306Z,26.67
2018-05-03T08:03:54.978Z,25.67
2018-05-03T08:06:22.763Z,23.70
2018-05-03T08:08:50.233Z,24.17
2018-05-03T08:13:50.301Z,22.80
2018-05-03T08:16:17.929Z,24.57
2018-05-03T08:18:45.553Z,24.27
2018-05-03T08:21:13.251Z,22.83
2018-05-03T08:23:40.873Z,23.23
2018-05-03T08:26:08.470Z,21.93
2018-05-03T08:28:36.131Z,23.53
2018-05-03T08:31:03.725Z,23.53
2018-05-03T08:33:31.359Z,21.33
2018-05-03T08:35:58.945Z,23.67
2018-05-03T08:38:26.622Z,24.00
2018-05-03T08:40:54.233Z,21.90
2018-05-03T08:43:21.861Z,22.03
2018-05-03T08:45:49.465Z,21.67
2018-05-03T08:48:17.063Z,21.00
2018-05-03T08:50:44.781Z,20.93
2018-05-03T08:53:12.444Z,19.87
2018-05-03T08:55:40.107Z,21.20
2018-05-03T08:58:07.753Z,21.23
2018-05-03T09:00:35.390Z,20.00
2018-05-03T09:03:03.062Z,18.93
2018-05-03T09:05:30.722Z,18.80
2018-05-03T09:07:58.403Z,19.87
2018-05-03T09:10:26.126Z,18.83
2018-05-03T09:12:53.817Z,18.60
2018-05-03T09:15:21.527Z,19.67
2018-05-03T09:17:49.175Z,18.40
2018-05-03T09:20:16.853Z,18.87
2018-05-03T09:22:44.549Z,20.27
2018-05-03T09:25:12.397Z,20.50
2018-05-03T09:27:40.047Z,21.47
2018-05-03T09:30:07.740Z,21.03
2018-05-03T09:32:35.418Z,22.03
2018-05-03T09:35:03.092Z,23.13
2018-05-03T09:37:30.794Z,22.40
2018-05-03T09:39:58.498Z,22.53
2018-05-03T09:42:26.190Z,21.83
2018-05-03T09:44:53.870Z,20.23
2018-05-03T09:47:21.569Z,19.20
2018-05-03T09:49:49.278Z,20.73
2018-05-03T09:52:16.971Z,20.37
2018-05-03T09:54:45.199Z,18.20
2018-05-03T09:57:12.884Z,18.53
2018-05-03T09:59:40.580Z,19.43
2018-05-03T10:02:08.234Z,17.93
2018-05-03T10:04:35.913Z,17.97
2018-05-03T10:07:03.561Z,15.70
2018-05-03T10:09:31.157Z,15.37
2018-05-03T10:11:58.797Z,16.03
2018-05-03T10:14:26.489Z,15.20
2018-05-03T10:16:54.217Z,15.70
2018-05-03T10:19:21.885Z,15.37
2018-05-03T10:21:49.586Z,15.37
2018-05-03T10:24:17.293Z,17.50
2018-05-03T10:26:44.966Z,21.47
2018-05-03T10:29:12.637Z,19.23
2018-05-03T10:31:40.317Z,20.10
2018-05-03T10:34:07.974Z,18.47
2018-05-03T10:36:35.895Z,18.57
2018-05-03T10:39:03.662Z,18.27
2018-05-03T10:41:31.346Z,20.03
2018-05-03T10:43:59.002Z,18.70
2018-05-03T10:46:26.706Z,18.87
2018-05-03T10:48:54.358Z,18.90
2018-05-03T10:51:22.018Z,19.37
2018-05-03T10:53:50.433Z,20.10
2018-05-03T10:56:18.106Z,19.87
2018-05-03T10:58:45.777Z,17.83
2018-05-03T11:01:13.451Z,19.13
2018-05-03T11:03:41.109Z,18.50
2018-05-03T11:06:08.710Z,15.70
2018-05-03T11:08:36.297Z,14.80
2018-05-03T11:11:03.975Z,16.57
2018-05-03T11:13:31.588Z,18.13
2018-05-03T11:15:59.218Z,16.80
2018-05-03T11:18:26.919Z,16.77
2018-05-03T11:20:54.549Z,19.20
2018-05-03T11:23:22.162Z,17.53
2018-05-03T11:25:49.799Z,17.57
2018-05-03T11:28:17.413Z,19.50
2018-05-03T11:30:45.004Z,20.17
2018-05-03T11:33:12.653Z,18.43
2018-05-03T11:35:40.293Z,20.50
2018-05-03T11:38:07.885Z,21.20
2018-05-03T11:40:35.519Z,20.77
2018-05-03T11:43:03.126Z,20.47
2018-05-03T11:45:30.725Z,19.93
2018-05-03T11:47:58.394Z,20.27
2018-05-03T11:50:26.152Z,19.50
2018-05-03T11:52:53.871Z,21.57
2018-05-03T11:55:21.613Z,22.27
2018-05-03T11:57:49.392Z,23.70
2018-05-03T12:00:17.130Z,20.60
2018-05-03T12:02:44.818Z,23.33
2018-05-03T12:05:12.496Z,22.50
2018-05-03T12:07:40.162Z,20.80
2018-05-03T12:10:07.863Z,21.10
2018-05-03T12:12:35.522Z,23.07
2018-05-03T12:15:03.138Z,21.27
2018-05-03T12:17:30.731Z,21.27
2018-05-03T12:19:58.364Z,22.73
2018-05-03T12:22:26.006Z,22.90
2018-05-03T12:24:53.598Z,23.17
2018-05-03T12:27:21.239Z,23.30
2018-05-03T12:29:48.874Z,23.47
2018-05-03T12:32:16.501Z,24.33
2018-05-03T12:34:44.235Z,24.53
2018-05-03T12:37:11.927Z,25.63
2018-05-03T12:39:39.562Z,26.97
2018-05-03T12:42:07.239Z,25.60
2018-05-03T12:44:34.874Z,26.37
2018-05-03T12:47:02.561Z,27.53
2018-05-03T12:49:30.222Z,26.83
2018-05-03T12:51:57.833Z,28.43
2018-05-03T12:54:25.447Z,29.97
2018-05-03T12:56:53.073Z,30.50
2018-05-03T12:59:20.680Z,29.97
2018-05-03T13:01:48.302Z,28.97
2018-05-03T13:04:15.929Z,30.13
2018-05-03T13:06:43.557Z,31.10
2018-05-03T13:09:11.215Z,30.47
2018-05-03T13:11:38.817Z,30.60
2018-05-03T13:14:06.536Z,31.03
2018-05-03T13:16:34.129Z,30.07
2018-05-03T13:19:01.767Z,31.77
2018-05-03T13:21:29.370Z,29.97
2018-05-03T13:23:56.959Z,29.50
2018-05-03T13:26:24.577Z,30.30
2018-05-03T13:28:52.257Z,27.70
2018-05-03T13:31:19.891Z,30.37
2018-05-03T13:33:47.481Z,28.10
2018-05-03T13:36:15.122Z,28.60
2018-05-03T13:38:42.714Z,28.63
2018-05-03T13:41:10.452Z,25.77
2018-05-03T13:43:38.077Z,28.10
2018-05-03T13:46:05.671Z,28.50
2018-05-03T13:48:33.261Z,27.10
2018-05-03T13:51:00.954Z,27.57
2018-05-03T13:53:28.635Z,25.50
2018-05-03T13:55:56.311Z,24.73
2018-05-03T13:58:23.942Z,25.17
2018-05-03T14:00:51.673Z,26.37
2018-05-03T14:03:19.377Z,26.23
2018-05-03T14:05:47.011Z,27.43
2018-05-03T14:08:14.688Z,25.93
2018-05-03T14:10:42.297Z,27.27
2018-05-03T14:13:09.949Z,26.53
2018-05-03T14:15:37.569Z,26.47
2018-05-03T14:18:05.158Z,27.03
2018-05-03T14:20:32.843Z,28.67
2018-05-03T14:23:00.465Z,26.87
2018-05-03T14:25:28.085Z,28.73
2018-05-03T14:27:55.687Z,30.73
2018-05-03T14:30:23.375Z,26.47
2018-05-03T14:32:50.985Z,27.63
2018-05-03T14:35:19.450Z,28.57
2018-05-03T14:37:47.123Z,25.83
2018-05-03T14:40:14.830Z,26.27
2018-05-03T14:42:43.419Z,26.57
2018-05-03T14:45:11.070Z,25.00
2018-05-03T14:47:38.734Z,24.63
2018-05-03T14:50:06.402Z,21.90
2018-05-03T14:52:34.036Z,21.10
2018-05-03T14:55:01.647Z,20.83
2018-05-03T14:57:29.361Z,20.53
2018-05-03T14:59:57.009Z,19.80
2018-05-03T15:02:24.609Z,18.90
2018-05-03T15:04:52.202Z,21.07
2018-05-03T15:07:19.874Z,19.53
2018-05-03T15:09:47.461Z,18.43
2018-05-03T15:12:15.057Z,18.83
2018-05-03T15:14:42.683Z,19.40
2018-05-03T15:17:10.378Z,18.93
2018-05-03T15:19:38.099Z,19.37
2018-05-03T15:22:05.818Z,19.53
2018-05-03T15:24:33.442Z,19.83
2018-05-03T15:27:01.083Z,19.40
2018-05-03T15:29:28.765Z,19.10
2018-05-03T15:31:58.697Z,19.10
2018-05-03T15:34:26.373Z,20.90
2018-05-03T15:36:54.011Z,20.77
2018-05-03T15:39:21.707Z,20.97
2018-05-03T15:41:49.245Z,22.17
2018-05-03T15:44:16.870Z,21.83
2018-05-03T15:46:44.515Z,21.53
2018-05-03T15:49:12.209Z,21.07
2018-05-03T15:51:40.031Z,18.67
2018-05-03T15:54:07.705Z,21.20
2018-05-03T15:56:35.359Z,19.93
2018-05-03T15:59:03.107Z,21.03
2018-05-03T16:01:30.860Z,18.40
2018-05-03T16:03:58.430Z,19.97
2018-05-03T16:06:26.137Z,18.50
2018-05-03T16:08:53.788Z,18.13
2018-05-03T16:11:21.406Z,19.10
2018-05-03T16:13:49.071Z,18.37
2018-05-03T16:16:16.835Z,19.40
2018-05-03T16:18:44.513Z,18.83
2018-05-03T16:21:12.214Z,19.40
2018-05-03T16:23:39.982Z,20.13
2018-05-03T16:26:07.610Z,19.47
2018-05-03T16:28:35.249Z,19.57
2018-05-03T16:31:02.888Z,19.33
2018-05-03T16:33:30.533Z,18.60
2018-05-03T16:35:58.261Z,19.00
2018-05-03T16:38:25.909Z,16.77
2018-05-03T16:40:53.635Z,17.67
2018-05-03T16:43:21.367Z,16.73
2018-05-03T16:45:48.981Z,17.73
2018-05-03T16:48:16.621Z,16.53
2018-05-03T16:50:44.310Z,16.57
2018-05-03T16:53:12.024Z,15.93
2018-05-03T16:55:39.674Z,16.60
2018-05-03T16:58:07.398Z,16.00
2018-05-03T17:00:35.087Z,15.50
2018-05-03T17:03:02.790Z,16.30
2018-05-03T17:05:30.502Z,16.20
2018-05-03T17:07:58.215Z,16.30
2018-05-03T17:10:25.878Z,14.90
2018-05-03T17:12:53.542Z,15.90
2018-05-03T17:15:21.213Z,14.27
2018-05-03T17:17:48.942Z,14.63
2018-05-03T17:20:16.565Z,13.87
2018-05-03T17:22:44.221Z,14.07
2018-05-03T17:25:11.966Z,14.50
2018-05-03T17:27:39.598Z,13.97
2018-05-03T17:30:07.646Z,13.10
2018-05-03T17:32:35.631Z,13.13
2018-05-03T17:35:03.464Z,13.93
2018-05-03T17:37:31.365Z,13.47
2018-05-03T17:39:59.297Z,14.57
2018-05-03T17:42:27.145Z,14.03
2018-05-03T17:44:54.859Z,16.73
2018-05-03T17:47:22.606Z,19.10
2018-05-03T17:49:50.378Z,18.27
2018-05-03T17:52:18.033Z,16.30
2018-05-03T17:54:45.706Z,17.17
2018-05-03T17:57:13.516Z,16.20
2018-05-03T17:59:41.212Z,18.70
2018-05-03T18:02:08.904Z,17.40
2018-05-03T18:04:36.646Z,16.80
2018-05-03T18:07:05.124Z,18.63
2018-05-03T18:09:32.862Z,18.20
2018-05-03T18:12:00.576Z,17.63
2018-05-03T18:14:28.247Z,16.43
2018-05-03T18:16:56.019Z,15.97
2018-05-03T18:19:23.729Z,16.27
2018-05-03T18:21:51.422Z,17.23
2018-05-03T18:24:19.077Z,16.33
2018-05-03T18:26:46.685Z,18.23
2018-05-03T18:29:14.302Z,19.17
2018-05-03T18:31:41.977Z,19.60
2018-05-03T18:34:09.583Z,20.17
2018-05-03T18:36:37.181Z,20.23
2018-05-03T18:39:04.853Z,20.07
2018-05-03T18:41:32.509Z,20.20
2018-05-03T18:44:00.188Z,24.60
2018-05-03T18:46:27.752Z,43.43
2018-05-03T18:48:55.462Z,25.17
2018-05-03T18:51:23.150Z,24.63
2018-05-03T18:53:50.909Z,22.07
2018-05-03T18:56:18.631Z,19.63
2018-05-03T18:58:46.278Z,20.67
2018-05-03T19:01:13.947Z,22.57
2018-05-03T19:03:41.611Z,21.40
2018-05-03T19:06:09.322Z,21.10
2018-05-03T19:08:36.952Z,20.77
2018-05-03T19:11:04.625Z,27.17
2018-05-03T19:13:32.326Z,28.50
2018-05-03T19:16:00.041Z,31.53
2018-05-03T19:18:27.753Z,33.47
2018-05-03T19:20:55.394Z,31.70
2018-05-03T19:23:23.058Z,33.93
2018-05-03T19:25:50.739Z,33.10
2018-05-03T19:28:18.368Z,34.57
2018-05-03T19:30:46.069Z,36.10
2018-05-03T19:33:13.775Z,32.40
2018-05-03T19:35:41.409Z,34.13
2018-05-03T19:38:09.062Z,32.10
2018-05-03T19:40:36.895Z,32.37
2018-05-03T19:43:04.650Z,31.47
2018-05-03T19:45:32.362Z,33.17
2018-05-03T19:48:00.172Z,32.40
2018-05-03T19:50:27.910Z,30.80
2018-05-03T19:52:55.558Z,32.23
2018-05-03T19:55:23.234Z,32.10
2018-05-03T19:57:50.898Z,31.60
2018-05-03T20:00:18.534Z,29.87
2018-05-03T20:02:46.290Z,34.60
2018-05-03T20:05:13.962Z,33.73
2018-05-03T20:07:41.640Z,32.60
2018-05-03T20:10:09.377Z,32.47
2018-05-03T20:12:37.069Z,33.13
2018-05-03T20:15:04.769Z,33.53
2018-05-03T20:17:32.438Z,35.20
2018-05-03T20:20:00.162Z,35.77
2018-05-03T20:22:27.803Z,37.47
2018-05-03T20:24:55.529Z,37.33
2018-05-03T20:27:23.169Z,37.90
2018-05-03T20:29:50.882Z,37.90
2018-05-03T20:32:18.519Z,37.93
2018-05-03T20:34:46.234Z,36.83
2018-05-03T20:37:13.943Z,37.30
2018-05-03T20:39:41.722Z,37.47
2018-05-03T20:42:09.401Z,34.97
2018-05-03T20:44:37.137Z,36.20
2018-05-03T20:47:04.827Z,34.90
2018-05-03T20:49:32.553Z,33.53
2018-05-03T20:52:00.192Z,35.67
2018-05-03T20:54:27.822Z,34.20
2018-05-03T20:56:55.439Z,33.10
2018-05-03T20:59:23.070Z,34.17
2018-05-03T21:01:50.748Z,34.27
2018-05-03T21:04:18.465Z,34.17
2018-05-03T21:06:46.169Z,33.40
2018-05-03T21:09:13.854Z,34.23
2018-05-03T21:11:41.477Z,30.97
2018-05-03T21:14:09.125Z,31.33
2018-05-03T21:16:36.814Z,33.57
2018-05-03T21:19:04.454Z,33.53
2018-05-03T21:21:32.083Z,33.27
2018-05-03T21:23:59.706Z,35.47
2018-05-03T21:26:27.370Z,33.53
2018-05-03T21:28:55.006Z,33.00
2018-05-03T21:31:22.682Z,32.60
2018-05-03T21:33:50.309Z,32.70
2018-05-03T21:36:17.953Z,32.90
2018-05-03T21:38:45.605Z,32.27
2018-05-03T21:41:13.269Z,35.07
2018-05-03T21:43:40.875Z,37.73
2018-05-03T21:46:08.502Z,33.10
2018-05-03T21:48:36.113Z,32.33
2018-05-03T21:51:03.753Z,30.50
2018-05-03T21:53:31.362Z,30.73
2018-05-03T21:55:58.993Z,30.10
2018-05-03T21:58:26.637Z,30.03
2018-05-03T22:00:54.305Z,30.87
2018-05-03T22:03:21.914Z,29.80
2018-05-03T22:05:49.601Z,28.97
2018-05-03T22:08:17.338Z,30.53
2018-05-03T22:10:44.981Z,29.17
2018-05-03T22:13:12.605Z,29.93
2018-05-03T22:15:40.225Z,30.13
2018-05-03T22:18:07.849Z,28.63
2018-05-03T22:20:35.553Z,28.80
2018-05-03T22:23:03.233Z,29.17
2018-05-03T22:25:30.849Z,31.17
2018-05-03T22:27:58.476Z,30.90
2018-05-03T22:30:26.126Z,29.83
2018-05-03T22:32:53.747Z,28.97
2018-05-03T22:35:21.566Z,29.73
2018-05-03T22:37:49.253Z,29.13
2018-05-03T22:40:16.946Z,29.20
2018-05-03T22:42:44.689Z,26.97
2018-05-03T22:45:12.400Z,22.20
2018-05-03T22:47:40.105Z,19.80
2018-05-03T22:50:07.906Z,18.43
2018-05-03T22:52:35.601Z,15.93
2018-05-03T22:55:03.239Z,15.40
2018-05-03T22:57:30.954Z,16.03
2018-05-03T22:59:58.707Z,16.23
2018-05-03T23:02:26.381Z,15.80
2018-05-03T23:04:54.078Z,16.23
2018-05-03T23:07:21.759Z,16.27
2018-05-03T23:09:49.505Z,17.50
2018-05-03T23:12:17.149Z,16.27
2018-05-03T23:14:44.820Z,16.30
2018-05-03T23:17:12.569Z,16.13
2018-05-03T23:19:40.206Z,15.57
2018-05-03T23:22:07.821Z,16.00
2018-05-03T23:24:35.546Z,14.73
2018-05-03T23:27:03.235Z,14.93
2018-05-03T23:29:30.858Z,15.87
2018-05-03T23:31:58.542Z,16.77
2018-05-03T23:34:26.181Z,16.50
2018-05-03T23:36:53.866Z,16.57
2018-05-03T23:39:21.493Z,15.57
2018-05-03T23:41:49.138Z,16.63
2018-05-03T23:44:16.746Z,15.23
2018-05-03T23:46:44.365Z,16.53
2018-05-03T23:49:12.005Z,16.67
2018-05-03T23:51:39.617Z,17.13
2018-05-03T23:54:07.219Z,16.23
2018-05-03T23:56:34.837Z,15.73
2018-05-03T23:59:02.481Z,16.10
